createdAt,value
2023-07-29T00:01:22.534Z,69.08
2023-07-29T00:03:50.351Z,69.17
2023-07-29T00:06:17.993Z,69.39
2023-07-29T00:08:45.578Z,69.43
2023-07-29T00:11:13.182Z,69.50
2023-07-29T00:13:40.786Z,69.53
2023-07-29T00:16:09.892Z,69.65
2023-07-29T00:18:38.085Z,69.62
2023-07-29T00:21:07.133Z,69.50
2023-07-29T00:23:34.784Z,69.00
2023-07-29T00:26:02.550Z,68.97
2023-07-29T00:28:30.218Z,69.15
2023-07-29T00:30:57.917Z,69.00
2023-07-29T00:33:26.991Z,69.00
2023-07-29T00:35:54.628Z,69.01
2023-07-29T00:38:22.232Z,68.97
2023-07-29T00:40:50.053Z,68.97
2023-07-29T00:43:17.651Z,69.19
2023-07-29T00:45:46.473Z,69.26
2023-07-29T00:48:14.470Z,69.29
2023-07-29T00:50:43.648Z,69.57
2023-07-29T00:53:11.427Z,69.52
2023-07-29T00:55:39.319Z,69.50
2023-07-29T00:58:07.024Z,69.69
2023-07-29T01:00:34.704Z,69.64
2023-07-29T01:03:02.575Z,69.68
2023-07-29T01:05:36.148Z,69.59
2023-07-29T01:08:11.976Z,69.36
2023-07-29T01:10:45.369Z,68.59
2023-07-29T01:13:21.393Z,68.97
2023-07-29T01:15:56.758Z,69.22
2023-07-29T01:18:28.087Z,69.74
2023-07-29T01:20:58.210Z,69.90
2023-07-29T01:23:27.691Z,70.26
2023-07-29T01:25:55.511Z,70.43
2023-07-29T01:28:23.423Z,70.49
2023-07-29T01:30:54.465Z,70.81
2023-07-29T01:33:27.318Z,70.96
2023-07-29T01:36:00.861Z,70.54
2023-07-29T01:38:35.776Z,70.54
2023-07-29T01:41:04.502Z,70.63
2023-07-29T01:43:33.034Z,70.45
2023-07-29T01:46:01.279Z,70.47
2023-07-29T01:48:31.481Z,70.47
2023-07-29T01:50:59.188Z,70.77
2023-07-29T01:53:26.870Z,70.82
2023-07-29T01:55:55.876Z,70.93
2023-07-29T01:58:23.479Z,70.67
2023-07-29T02:00:51.150Z,70.62
2023-07-29T02:03:19.132Z,71.03
2023-07-29T02:05:46.709Z,71.26
2023-07-29T02:08:15.123Z,71.00
2023-07-29T02:10:46.064Z,70.75
2023-07-29T02:13:15.612Z,70.63
2023-07-29T02:15:43.633Z,70.83
2023-07-29T02:18:11.261Z,70.96
2023-07-29T02:20:38.859Z,70.75
2023-07-29T02:23:06.789Z,70.72
2023-07-29T02:25:37.421Z,70.89
2023-07-29T02:28:05.719Z,71.03
2023-07-29T02:30:34.691Z,70.98
2023-07-29T02:33:02.719Z,71.17
2023-07-29T02:35:30.422Z,71.14
2023-07-29T02:37:58.023Z,70.84
2023-07-29T02:40:27.763Z,70.92
2023-07-29T02:42:55.358Z,70.85
2023-07-29T02:45:22.989Z,70.76
2023-07-29T02:47:51.949Z,70.92
2023-07-29T02:50:19.649Z,70.91
2023-07-29T02:52:50.279Z,71.17
2023-07-29T02:55:19.030Z,71.33
2023-07-29T02:57:46.687Z,71.30
2023-07-29T03:00:16.305Z,71.47
2023-07-29T03:02:44.021Z,71.53
2023-07-29T03:05:13.801Z,71.81
2023-07-29T03:07:41.459Z,71.56
2023-07-29T03:10:09.622Z,71.46
2023-07-29T03:12:37.308Z,71.56
2023-07-29T03:15:05.838Z,71.43
2023-07-29T03:17:33.535Z,71.71
2023-07-29T03:20:01.519Z,71.77
2023-07-29T03:22:30.661Z,71.59
2023-07-29T03:24:58.538Z,71.35
2023-07-29T03:27:26.701Z,71.69
2023-07-29T03:29:54.323Z,71.43
2023-07-29T03:32:21.963Z,71.65
2023-07-29T03:34:49.536Z,71.93
2023-07-29T03:37:17.604Z,72.01
2023-07-29T03:39:46.565Z,71.69
2023-07-29T03:42:14.174Z,71.66
2023-07-29T03:44:41.969Z,71.71
2023-07-29T03:47:09.725Z,71.90
2023-07-29T03:49:37.375Z,71.79
2023-07-29T03:52:05.621Z,71.89
2023-07-29T03:54:33.277Z,71.87
2023-07-29T03:57:02.287Z,71.60
2023-07-29T03:59:30.305Z,71.50
2023-07-29T04:01:57.965Z,71.83
2023-07-29T04:04:25.718Z,71.89
2023-07-29T04:06:53.422Z,71.92
2023-07-29T04:09:21.130Z,72.48
2023-07-29T04:11:49.329Z,72.28
2023-07-29T04:14:18.820Z,72.18
2023-07-29T04:16:49.105Z,71.80
2023-07-29T04:19:17.923Z,71.60
2023-07-29T04:21:45.546Z,71.51
2023-07-29T04:24:13.168Z,71.71
2023-07-29T04:26:40.944Z,71.72
2023-07-29T04:29:08.614Z,71.56
2023-07-29T04:31:37.673Z,71.53
2023-07-29T04:34:07.151Z,71.78
2023-07-29T04:36:35.139Z,71.98
2023-07-29T04:39:03.054Z,72.21
2023-07-29T04:41:30.754Z,72.12
2023-07-29T04:43:58.416Z,71.92
2023-07-29T04:46:26.085Z,71.64
2023-07-29T04:48:55.388Z,71.37
2023-07-29T04:51:23.475Z,71.42
2023-07-29T04:53:51.198Z,71.61
2023-07-29T04:56:19.040Z,71.40
2023-07-29T04:58:46.700Z,71.46
2023-07-29T05:01:14.410Z,71.50
2023-07-29T05:03:42.140Z,71.26
2023-07-29T05:06:11.211Z,71.43
2023-07-29T05:08:38.832Z,71.53
2023-07-29T05:11:06.615Z,71.46
2023-07-29T05:13:34.259Z,71.44
2023-07-29T05:16:01.906Z,71.41
2023-07-29T05:18:29.560Z,71.39
2023-07-29T05:20:59.780Z,71.60
2023-07-29T05:23:28.910Z,71.78
2023-07-29T05:25:56.595Z,72.14
2023-07-29T05:28:24.238Z,72.01
2023-07-29T05:30:51.870Z,72.02
2023-07-29T05:33:19.693Z,71.09
2023-07-29T05:35:48.380Z,71.01
2023-07-29T05:38:15.990Z,71.27
2023-07-29T05:40:44.971Z,70.89
2023-07-29T05:43:12.869Z,71.05
2023-07-29T05:45:40.492Z,70.49
2023-07-29T05:48:08.201Z,70.40
2023-07-29T05:50:35.950Z,70.06
2023-07-29T05:53:03.604Z,69.72
2023-07-29T05:55:31.298Z,69.86
2023-07-29T05:58:02.894Z,70.05
2023-07-29T06:00:30.629Z,69.69
2023-07-29T06:02:58.401Z,68.22
2023-07-29T06:05:26.552Z,67.59
2023-07-29T06:07:54.198Z,66.92
2023-07-29T06:10:23.132Z,66.78
2023-07-29T06:12:50.795Z,66.51
2023-07-29T06:15:22.985Z,66.28
2023-07-29T06:17:50.957Z,65.96
2023-07-29T06:20:20.797Z,65.82
2023-07-29T06:22:48.380Z,65.72
2023-07-29T06:25:16.131Z,65.40
2023-07-29T06:27:43.743Z,65.06
2023-07-29T06:30:11.942Z,65.66
2023-07-29T06:32:40.995Z,65.60
2023-07-29T06:35:09.288Z,66.01
2023-07-29T06:37:36.923Z,66.48
2023-07-29T06:40:05.257Z,66.67
2023-07-29T06:42:32.912Z,66.27
2023-07-29T06:45:00.584Z,66.01
2023-07-29T06:47:28.365Z,64.79
2023-07-29T06:49:57.528Z,64.56
2023-07-29T06:52:25.468Z,64.32
2023-07-29T06:54:53.056Z,63.16
2023-07-29T06:57:20.748Z,63.27
2023-07-29T06:59:48.513Z,63.28
2023-07-29T07:02:16.428Z,63.46
2023-07-29T07:04:44.096Z,63.64
2023-07-29T07:07:13.109Z,63.81
2023-07-29T07:09:40.929Z,62.85
2023-07-29T07:12:09.460Z,62.19
2023-07-29T07:14:37.099Z,62.06
2023-07-29T07:17:04.869Z,62.09
2023-07-29T07:19:32.508Z,62.69
2023-07-29T07:22:00.298Z,61.65
2023-07-29T07:24:29.302Z,61.35
2023-07-29T07:26:57.049Z,62.30
2023-07-29T07:29:24.805Z,62.12
2023-07-29T07:31:54.458Z,61.57
2023-07-29T07:34:22.637Z,61.22
2023-07-29T07:36:50.456Z,60.32
2023-07-29T07:39:18.097Z,60.52
2023-07-29T07:41:47.143Z,59.44
2023-07-29T07:44:18.685Z,58.30
2023-07-29T07:46:46.534Z,58.73
2023-07-29T07:49:14.686Z,59.80
2023-07-29T07:51:42.301Z,59.03
2023-07-29T07:54:10.186Z,59.12
2023-07-29T07:56:38.073Z,59.09
2023-07-29T07:59:07.613Z,58.53
2023-07-29T08:01:36.707Z,57.43
2023-07-29T08:04:04.766Z,57.75
2023-07-29T08:06:32.716Z,56.66
2023-07-29T08:09:00.722Z,56.91
2023-07-29T08:11:28.353Z,57.08
2023-07-29T08:13:56.005Z,57.20
2023-07-29T08:16:24.986Z,56.87
2023-07-29T08:18:52.673Z,57.15
2023-07-29T08:21:20.258Z,57.34
2023-07-29T08:23:47.935Z,56.20
2023-07-29T08:26:15.671Z,53.52
2023-07-29T08:28:46.017Z,54.62
2023-07-29T08:31:13.707Z,54.98
2023-07-29T08:33:43.062Z,55.74
2023-07-29T08:36:10.701Z,55.40
2023-07-29T08:38:38.337Z,55.97
2023-07-29T08:41:13.671Z,55.77
2023-07-29T08:43:46.045Z,53.77
2023-07-29T08:46:14.669Z,53.97
2023-07-29T08:48:45.320Z,52.96
2023-07-29T08:51:14.483Z,53.14
2023-07-29T08:53:42.219Z,53.00
2023-07-29T08:56:10.093Z,53.73
2023-07-29T08:58:38.701Z,52.98
2023-07-29T09:01:06.544Z,52.77
2023-07-29T09:03:34.403Z,52.36
2023-07-29T09:06:07.592Z,53.01
2023-07-29T09:08:36.186Z,53.88
2023-07-29T09:11:04.193Z,50.39
2023-07-29T09:13:31.928Z,49.31
2023-07-29T09:16:01.450Z,51.13
2023-07-29T09:18:29.662Z,50.54
2023-07-29T09:21:01.176Z,49.99
2023-07-29T09:23:32.730Z,49.08
2023-07-29T09:26:04.188Z,49.29
2023-07-29T09:28:36.117Z,49.83
2023-07-29T09:31:04.117Z,49.01
2023-07-29T09:33:33.557Z,48.99
2023-07-29T09:36:01.238Z,49.28
2023-07-29T09:38:30.930Z,49.01
2023-07-29T09:41:00.049Z,48.23
2023-07-29T09:43:30.913Z,47.87
2023-07-29T09:46:02.390Z,47.21
2023-07-29T09:48:30.448Z,46.73
2023-07-29T09:50:58.497Z,46.11
2023-07-29T09:53:27.472Z,46.08
2023-07-29T09:55:56.698Z,46.38
2023-07-29T09:58:29.289Z,47.33
2023-07-29T10:00:57.046Z,47.48
2023-07-29T10:03:25.248Z,47.83
2023-07-29T10:05:54.351Z,47.88
2023-07-29T10:08:24.482Z,46.27
2023-07-29T10:10:52.839Z,46.43
2023-07-29T10:13:22.239Z,45.44
2023-07-29T10:15:52.587Z,44.84
2023-07-29T10:18:21.494Z,46.51
2023-07-29T10:20:51.374Z,46.91
2023-07-29T10:23:20.247Z,47.84
2023-07-29T10:25:51.716Z,47.44
2023-07-29T10:28:22.810Z,46.47
2023-07-29T10:30:52.827Z,46.68
2023-07-29T10:33:20.520Z,46.66
2023-07-29T10:35:48.697Z,47.01
2023-07-29T10:38:17.553Z,47.13
2023-07-29T10:40:49.730Z,46.03
2023-07-29T10:43:27.144Z,44.93
2023-07-29T10:46:10.350Z,44.96
2023-07-29T10:48:44.596Z,44.25
2023-07-29T10:51:30.236Z,44.74
2023-07-29T10:53:59.826Z,45.90
2023-07-29T10:56:32.739Z,45.46
2023-07-29T10:59:34.045Z,45.75
2023-07-29T11:02:02.973Z,45.81
2023-07-29T11:04:32.695Z,46.75
2023-07-29T11:07:28.215Z,48.17
2023-07-29T11:10:06.795Z,48.33
2023-07-29T11:12:39.102Z,48.24
2023-07-29T11:15:15.333Z,49.42
2023-07-29T11:17:44.840Z,49.49
2023-07-29T11:20:14.032Z,49.77
2023-07-29T11:22:42.113Z,50.47
2023-07-29T11:25:11.432Z,53.29
2023-07-29T11:27:39.422Z,55.78
2023-07-29T11:30:11.941Z,55.54
2023-07-29T11:32:41.085Z,57.50
2023-07-29T11:35:11.938Z,57.34
2023-07-29T11:37:40.941Z,57.78
2023-07-29T11:40:11.296Z,57.70
2023-07-29T11:42:39.835Z,55.98
2023-07-29T11:45:15.449Z,55.68
2023-07-29T11:47:44.917Z,53.49
2023-07-29T11:50:15.409Z,52.77
2023-07-29T11:52:44.908Z,53.75
2023-07-29T11:55:13.885Z,55.42
2023-07-29T11:57:42.874Z,55.14
2023-07-29T12:00:15.518Z,54.92
2023-07-29T12:02:46.409Z,54.98
2023-07-29T12:05:16.227Z,55.67
2023-07-29T12:07:45.514Z,55.46
2023-07-29T12:10:13.767Z,56.57
2023-07-29T12:12:46.485Z,57.22
2023-07-29T12:15:15.644Z,57.15
2023-07-29T12:17:43.793Z,56.80
2023-07-29T12:20:12.668Z,57.47
2023-07-29T12:22:41.044Z,58.39
2023-07-29T12:25:10.086Z,57.85
2023-07-29T12:27:37.896Z,57.43
2023-07-29T12:30:06.666Z,60.33
2023-07-29T12:32:35.645Z,61.32
2023-07-29T12:35:03.467Z,63.18
2023-07-29T12:37:34.668Z,63.17
2023-07-29T12:40:02.388Z,64.23
2023-07-29T12:42:30.211Z,63.65
2023-07-29T12:44:57.863Z,63.39
2023-07-29T12:47:27.570Z,63.74
2023-07-29T12:49:56.748Z,64.54
2023-07-29T12:52:24.365Z,62.84
2023-07-29T12:54:52.097Z,62.03
2023-07-29T12:57:19.726Z,62.06
2023-07-29T12:59:47.376Z,61.23
2023-07-29T13:02:14.992Z,62.42
2023-07-29T13:04:42.670Z,62.01
2023-07-29T13:07:11.697Z,60.94
2023-07-29T13:09:39.306Z,62.48
2023-07-29T13:12:07.701Z,61.48
2023-07-29T13:14:36.253Z,62.25
2023-07-29T13:17:03.978Z,63.67
2023-07-29T13:19:31.601Z,65.14
2023-07-29T13:21:59.267Z,64.25
2023-07-29T13:24:28.250Z,64.18
2023-07-29T13:26:55.846Z,64.59
2023-07-29T13:29:23.485Z,63.86
2023-07-29T13:31:51.142Z,61.78
2023-07-29T13:34:18.865Z,63.12
2023-07-29T13:36:46.467Z,62.65
2023-07-29T13:39:17.029Z,62.57
2023-07-29T13:41:46.212Z,64.02
2023-07-29T13:44:13.857Z,62.91
2023-07-29T13:46:43.634Z,62.10
2023-07-29T13:49:11.268Z,63.24
2023-07-29T13:51:39.117Z,63.01
2023-07-29T13:54:06.847Z,61.67
2023-07-29T13:56:34.733Z,61.60
2023-07-29T13:59:04.043Z,61.71
2023-07-29T14:01:31.745Z,61.54
2023-07-29T14:03:59.432Z,60.45
2023-07-29T14:06:39.463Z,60.60
2023-07-29T14:09:12.319Z,61.63
2023-07-29T14:11:40.076Z,60.45
2023-07-29T14:14:09.446Z,60.33
2023-07-29T14:16:37.279Z,61.00
2023-07-29T14:19:05.141Z,59.08
2023-07-29T14:21:32.764Z,60.10
2023-07-29T14:24:00.488Z,59.74
2023-07-29T14:26:28.258Z,62.33
2023-07-29T14:28:55.959Z,62.26
2023-07-29T14:31:25.040Z,62.01
2023-07-29T14:33:52.708Z,63.03
2023-07-29T14:36:20.277Z,62.86
2023-07-29T14:38:47.903Z,64.20
2023-07-29T14:41:15.599Z,64.90
2023-07-29T14:43:43.211Z,62.44
2023-07-29T14:46:11.081Z,60.80
2023-07-29T14:48:40.212Z,61.20
2023-07-29T14:51:07.901Z,61.56
2023-07-29T14:53:35.773Z,62.27
2023-07-29T14:56:03.425Z,62.42
2023-07-29T14:58:31.314Z,61.99
2023-07-29T15:00:59.048Z,61.71
2023-07-29T15:03:27.066Z,63.64
2023-07-29T15:05:56.144Z,62.83
2023-07-29T15:08:23.788Z,61.75
2023-07-29T15:10:51.385Z,61.98
2023-07-29T15:13:18.995Z,60.77
2023-07-29T15:15:46.653Z,60.95
2023-07-29T15:18:14.239Z,61.98
2023-07-29T15:20:41.960Z,62.20
2023-07-29T15:23:10.978Z,63.36
2023-07-29T15:25:40.027Z,63.15
2023-07-29T15:28:07.777Z,62.76
2023-07-29T15:30:38.124Z,63.55
2023-07-29T15:33:05.786Z,63.11
2023-07-29T15:35:39.136Z,63.90
2023-07-29T15:38:06.869Z,64.93
2023-07-29T15:40:35.907Z,63.13
2023-07-29T15:43:03.561Z,61.89
2023-07-29T15:45:34.234Z,62.29
2023-07-29T15:48:03.068Z,63.88
2023-07-29T15:50:30.853Z,64.37
2023-07-29T15:52:58.623Z,64.06
2023-07-29T15:55:26.393Z,63.33
2023-07-29T15:57:55.391Z,62.96
2023-07-29T16:00:25.899Z,62.60
2023-07-29T16:02:55.510Z,63.20
2023-07-29T16:05:23.268Z,63.17
2023-07-29T16:07:51.239Z,63.13
2023-07-29T16:10:19.088Z,63.26
2023-07-29T16:12:47.281Z,63.61
2023-07-29T16:15:16.329Z,61.50
2023-07-29T16:17:44.260Z,61.32
2023-07-29T16:20:13.164Z,63.10
2023-07-29T16:22:42.659Z,63.67
2023-07-29T16:25:10.562Z,64.12
2023-07-29T16:27:38.184Z,64.47
2023-07-29T16:30:07.160Z,64.42
2023-07-29T16:32:36.259Z,64.41
2023-07-29T16:35:03.930Z,65.50
2023-07-29T16:37:31.604Z,65.01
2023-07-29T16:40:00.054Z,64.74
2023-07-29T16:42:27.748Z,64.87
2023-07-29T16:44:56.555Z,64.89
2023-07-29T16:47:25.055Z,64.78
2023-07-29T16:49:54.363Z,65.10
2023-07-29T16:52:22.108Z,65.33
2023-07-29T16:54:49.820Z,65.42
2023-07-29T16:57:17.487Z,65.56
2023-07-29T16:59:45.106Z,65.53
2023-07-29T17:02:12.710Z,65.48
2023-07-29T17:04:40.351Z,66.17
2023-07-29T17:07:09.425Z,66.42
2023-07-29T17:09:37.062Z,66.32
2023-07-29T17:12:05.493Z,66.67
2023-07-29T17:14:33.604Z,64.83
2023-07-29T17:17:01.290Z,65.26
2023-07-29T17:19:28.933Z,66.98
2023-07-29T17:21:56.834Z,67.05
2023-07-29T17:24:25.873Z,66.38
2023-07-29T17:26:53.523Z,66.66
2023-07-29T17:29:21.199Z,66.28
2023-07-29T17:31:50.216Z,66.15
2023-07-29T17:34:19.082Z,65.65
2023-07-29T17:36:46.791Z,65.50
2023-07-29T17:39:14.481Z,64.21
2023-07-29T17:41:45.114Z,64.03
2023-07-29T17:44:12.770Z,62.23
2023-07-29T17:46:42.529Z,62.62
2023-07-29T17:49:10.611Z,62.58
2023-07-29T17:51:38.404Z,61.78
2023-07-29T17:54:06.048Z,62.46
2023-07-29T17:56:36.237Z,62.63
2023-07-29T17:59:07.471Z,62.73
2023-07-29T18:01:35.275Z,63.31
2023-07-29T18:04:03.959Z,63.20
2023-07-29T18:06:31.557Z,63.02
2023-07-29T18:08:59.141Z,62.79
2023-07-29T18:11:26.929Z,62.34
2023-07-29T18:13:54.553Z,62.23
2023-07-29T18:16:24.206Z,62.25
2023-07-29T18:18:52.317Z,62.05
2023-07-29T18:21:19.994Z,61.81
2023-07-29T18:23:47.681Z,62.61
2023-07-29T18:26:15.320Z,61.85
2023-07-29T18:28:42.972Z,61.77
2023-07-29T18:31:11.619Z,61.39
2023-07-29T18:33:40.744Z,60.38
2023-07-29T18:36:08.574Z,61.42
2023-07-29T18:38:36.238Z,62.39
2023-07-29T18:41:03.816Z,62.01
2023-07-29T18:43:31.478Z,61.67
2023-07-29T18:46:00.285Z,61.80
2023-07-29T18:48:27.898Z,61.36
2023-07-29T18:50:56.843Z,61.36
2023-07-29T18:53:25.614Z,62.00
2023-07-29T18:55:53.532Z,61.95
2023-07-29T18:58:21.163Z,61.46
2023-07-29T19:00:49.918Z,61.74
2023-07-29T19:03:17.689Z,61.96
2023-07-29T19:05:46.116Z,62.28
2023-07-29T19:08:15.498Z,62.52
2023-07-29T19:10:43.119Z,62.69
2023-07-29T19:13:10.704Z,62.76
2023-07-29T19:15:40.541Z,62.78
2023-07-29T19:18:08.237Z,62.77
2023-07-29T19:20:35.933Z,63.30
2023-07-29T19:23:03.773Z,63.42
2023-07-29T19:25:32.773Z,63.35
2023-07-29T19:28:00.438Z,62.92
2023-07-29T19:30:28.150Z,61.61
2023-07-29T19:32:55.812Z,61.39
2023-07-29T19:35:23.496Z,62.19
2023-07-29T19:37:51.097Z,62.61
2023-07-29T19:40:18.696Z,62.73
2023-07-29T19:42:47.661Z,62.64
2023-07-29T19:45:15.263Z,62.22
2023-07-29T19:47:42.898Z,61.88
2023-07-29T19:50:11.347Z,61.90
2023-07-29T19:52:39.260Z,62.30
2023-07-29T19:55:08.112Z,63.02
2023-07-29T19:57:35.745Z,63.36
2023-07-29T20:00:05.357Z,63.64
2023-07-29T20:02:33.087Z,63.96
2023-07-29T20:05:01.011Z,64.13
2023-07-29T20:07:28.641Z,64.19
2023-07-29T20:09:56.294Z,63.82
2023-07-29T20:12:24.013Z,64.04
2023-07-29T20:14:51.731Z,63.89
2023-07-29T20:17:20.682Z,64.80
2023-07-29T20:19:48.314Z,64.76
2023-07-29T20:22:15.934Z,64.92
2023-07-29T20:24:43.719Z,65.02
2023-07-29T20:27:11.395Z,65.23
2023-07-29T20:29:39.019Z,63.87
2023-07-29T20:32:07.135Z,63.92
2023-07-29T20:34:36.045Z,63.72
2023-07-29T20:37:03.764Z,64.68
2023-07-29T20:39:31.390Z,64.96
2023-07-29T20:41:59.016Z,64.81
2023-07-29T20:44:29.165Z,64.65
2023-07-29T20:46:57.072Z,65.16
2023-07-29T20:49:24.782Z,65.90
2023-07-29T20:51:53.732Z,65.65
2023-07-29T20:54:21.655Z,66.44
2023-07-29T20:56:49.308Z,65.07
2023-07-29T20:59:16.967Z,64.64
2023-07-29T21:01:44.917Z,64.46
2023-07-29T21:04:12.663Z,66.49
2023-07-29T21:06:40.378Z,66.86
2023-07-29T21:09:10.027Z,66.75
2023-07-29T21:11:37.794Z,66.92
2023-07-29T21:14:05.587Z,64.32
2023-07-29T21:16:33.343Z,63.88
2023-07-29T21:19:01.146Z,63.84
2023-07-29T21:21:28.850Z,63.33
2023-07-29T21:23:56.539Z,65.42
2023-07-29T21:26:26.600Z,66.17
2023-07-29T21:28:54.352Z,65.07
2023-07-29T21:31:22.497Z,64.66
2023-07-29T21:33:50.206Z,64.87
2023-07-29T21:36:17.857Z,65.34
2023-07-29T21:38:47.877Z,66.08
2023-07-29T21:41:15.648Z,66.28
2023-07-29T21:43:44.601Z,66.30
2023-07-29T21:46:13.187Z,66.72
2023-07-29T21:48:42.211Z,67.34
2023-07-29T21:51:09.817Z,67.63
2023-07-29T21:53:37.448Z,67.56
2023-07-29T21:56:05.254Z,67.23
2023-07-29T21:58:32.874Z,67.35
2023-07-29T22:01:02.037Z,67.24
2023-07-29T22:03:29.742Z,66.79
2023-07-29T22:06:03.990Z,66.06
2023-07-29T22:08:31.702Z,65.36
2023-07-29T22:11:06.122Z,65.19
2023-07-29T22:13:34.293Z,65.04
2023-07-29T22:16:04.082Z,64.73
2023-07-29T22:18:32.413Z,64.58
2023-07-29T22:21:01.478Z,64.83
2023-07-29T22:23:29.274Z,65.27
2023-07-29T22:25:58.560Z,65.48
2023-07-29T22:28:27.002Z,65.35
2023-07-29T22:30:54.940Z,64.88
2023-07-29T22:33:24.025Z,65.19
2023-07-29T22:35:51.948Z,65.19
2023-07-29T22:38:19.583Z,64.74
2023-07-29T22:40:53.596Z,65.41
2023-07-29T22:43:21.375Z,65.09
2023-07-29T22:45:54.327Z,65.17
2023-07-29T22:48:24.313Z,65.19
2023-07-29T22:50:51.939Z,65.20
2023-07-29T22:53:19.582Z,65.58
2023-07-29T22:55:49.976Z,65.57
2023-07-29T22:58:17.969Z,65.49
2023-07-29T23:00:49.431Z,65.65
2023-07-29T23:03:17.020Z,65.60
2023-07-29T23:05:46.502Z,65.35
2023-07-29T23:08:14.157Z,65.20
2023-07-29T23:10:41.840Z,65.03
2023-07-29T23:13:09.500Z,65.10
2023-07-29T23:15:37.681Z,65.31
2023-07-29T23:18:05.982Z,65.34
2023-07-29T23:20:34.506Z,65.26
2023-07-29T23:23:04.484Z,65.48
2023-07-29T23:25:32.778Z,65.33
2023-07-29T23:28:00.494Z,65.20
2023-07-29T23:30:28.366Z,65.18
2023-07-29T23:32:56.005Z,65.74
2023-07-29T23:35:23.653Z,65.27
2023-07-29T23:37:51.599Z,65.26
2023-07-29T23:40:20.627Z,66.19
2023-07-29T23:42:48.343Z,66.48
2023-07-29T23:45:16.182Z,66.69
2023-07-29T23:47:43.917Z,67.00
2023-07-29T23:50:11.973Z,66.12
2023-07-29T23:52:39.730Z,66.16
2023-07-29T23:55:08.440Z,66.06
2023-07-29T23:57:37.373Z,66.26
